Time;durP1;ratioP1;P1;durP2;ratioP2;P2;SDS_P1;SDS_P2;PMS_P1;PMS_P2;Temp;Humidity;BMP_temperature;BMP_pressure;BME280_temperature;BME280_humidity;BME280_pressure;Samples;Min_cycle;Max_cycle;Signal;HPM_P1;HPM_P2
2021/12/20 00:01:58;;;;;;;9.82;1.63;;;6.40;99.90;;;;;;5028962;28;20443;-86
2021/12/20 00:04:24;;;;;;;21.60;2.75;;;6.70;99.90;;;;;;5028558;28;20137;-86
2021/12/20 00:06:49;;;;;;;22.05;2.60;;;7.50;99.90;;;;;;5045751;28;20083;-86
2021/12/20 00:09:15;;;;;;;16.65;2.17;;;7.80;99.90;;;;;;5044868;28;20045;-86
2021/12/20 00:11:41;;;;;;;21.52;2.72;;;6.30;99.90;;;;;;5029338;28;20135;-86
2021/12/20 00:14:09;;;;;;;15.38;1.95;;;7.40;99.90;;;;;;5028438;28;20130;-86
2021/12/20 00:16:34;;;;;;;20.48;2.47;;;6.30;99.90;;;;;;5045751;28;20045;-86
2021/12/20 00:19:00;;;;;;;16.10;2.33;;;7.60;99.90;;;;;;5045683;28;20095;-86
2021/12/20 00:21:27;;;;;;;18.75;2.78;;;6.20;99.90;;;;;;5045206;28;20094;-86
2021/12/20 00:23:52;;;;;;;16.27;2.10;;;6.20;99.90;;;;;;5045693;28;20055;-86
2021/12/20 00:26:18;;;;;;;16.80;2.65;;;8.10;99.90;;;;;;5028123;28;20041;-86
2021/12/20 00:28:44;;;;;;;19.63;2.70;;;6.20;99.90;;;;;;5045940;28;20130;-86
2021/12/20 00:31:09;;;;;;;18.23;2.08;;;6.60;99.90;;;;;;5028198;28;20052;-86
2021/12/20 00:33:35;;;;;;;17.98;1.95;;;6.10;99.90;;;;;;5028866;28;20095;-86
2021/12/20 00:36:08;;;;;;;22.35;3.25;;;6.20;99.90;;;;;;5028050;28;20087;-86
2021/12/20 00:41:19;;;;;;;20.02;2.20;;;7.20;99.90;;;;;;5045323;28;20357;-86
2021/12/20 00:43:45;;;;;;;20.80;2.60;;;6.10;99.90;;;;;;5043916;28;20053;-86
2021/12/20 00:46:11;;;;;;;26.17;2.45;;;6.10;99.90;;;;;;5028497;28;20091;-86
2021/12/20 00:48:37;;;;;;;22.48;1.90;;;6.20;99.90;;;;;;5044543;28;20045;-86
2021/12/20 00:51:03;;;;;;;19.00;2.40;;;6.10;99.90;;;;;;5027897;28;20128;-86
2021/12/20 00:53:29;;;;;;;11.57;1.70;;;6.10;99.90;;;;;;5028035;28;20124;-86
2021/12/20 00:55:54;;;;;;;14.05;2.03;;;6.10;99.90;;;;;;5044080;28;20694;-86
2021/12/20 00:58:20;;;;;;;10.00;1.38;;;6.10;99.90;;;;;;5029117;28;20129;-86
2021/12/20 01:00:51;;;;;;;8.02;1.48;;;8.00;99.90;;;;;;5043995;28;20492;-86
2021/12/20 01:03:18;;;;;;;11.98;1.40;;;7.10;99.90;;;;;;5028568;28;20129;-86
2021/12/20 01:05:43;;;;;;;13.00;1.40;;;7.60;99.90;;;;;;5046110;28;20119;-86
2021/12/20 01:08:09;;;;;;;11.98;1.38;;;6.70;99.90;;;;;;5044348;28;20048;-86
2021/12/20 01:10:39;;;;;;;14.45;1.67;;;6.20;99.90;;;;;;5045829;28;20048;-86
2021/12/20 01:13:05;;;;;;;13.40;1.67;;;6.20;99.90;;;;;;5044526;28;20053;-85
2021/12/20 01:15:35;;;;;;;11.30;1.38;;;7.80;99.90;;;;;;5045125;28;20048;-86
2021/12/20 01:18:03;;;;;;;11.32;1.92;;;7.70;99.90;;;;;;5043593;28;20053;-86
2021/12/20 01:20:30;;;;;;;8.88;1.35;;;6.20;99.90;;;;;;5044907;28;20048;-86
2021/12/20 01:22:56;;;;;;;11.63;1.30;;;7.60;99.90;;;;;;5044179;28;20045;-86
2021/12/20 01:25:22;;;;;;;21.45;1.40;;;6.20;99.90;;;;;;5043778;28;20083;-86
2021/12/20 01:27:49;;;;;;;9.77;1.00;;;6.10;99.90;;;;;;5045404;28;20044;-86
2021/12/20 01:30:16;;;;;;;9.50;1.52;;;6.10;99.90;;;;;;5026492;28;20051;-86
2021/12/20 01:32:42;;;;;;;16.20;2.38;;;7.70;99.90;;;;;;5044416;28;20048;-86
2021/12/20 01:35:09;;;;;;;9.60;2.22;;;6.10;99.90;;;;;;5043355;28;20043;-86
2021/12/20 01:37:35;;;;;;;8.43;0.90;;;6.00;99.90;;;;;;5027916;28;20041;-86
2021/12/20 01:40:03;;;;;;;12.52;1.63;;;6.00;99.90;;;;;;5043642;28;20047;-86
2021/12/20 01:42:32;;;;;;;8.65;1.00;;;8.00;99.90;;;;;;5044685;28;20511;-86
2021/12/20 01:44:58;;;;;;;9.60;1.52;;;6.80;99.90;;;;;;5044439;28;20135;-86
2021/12/20 01:47:31;;;;;;;6.22;0.68;;;7.00;99.90;;;;;;5042788;28;20048;-87
2021/12/20 01:50:09;;;;;;;16.17;1.75;;;5.70;99.90;;;;;;5027764;28;20052;-86
2021/12/20 01:52:43;;;;;;;6.63;1.00;;;5.70;99.90;;;;;;5043391;28;20053;-85
2021/12/20 01:55:11;;;;;;;6.57;1.08;;;6.00;99.90;;;;;;5026836;28;20041;-85
2021/12/20 01:57:37;;;;;;;11.73;1.63;;;5.50;99.90;;;;;;5043344;28;20044;-86
2021/12/20 02:00:18;;;;;;;14.38;1.10;;;5.50;99.90;;;;;;5042283;28;20037;-85
2021/12/20 02:02:44;;;;;;;11.30;1.73;;;5.50;99.90;;;;;;5043977;28;20090;-85
2021/12/20 02:05:29;;;;;;;13.25;1.65;;;6.60;99.90;;;;;;5026641;28;20040;-86
2021/12/20 02:08:13;;;;;;;10.85;1.77;;;5.00;99.90;;;;;;5043307;28;20087;-85
2021/12/20 02:10:40;;;;;;;7.75;1.52;;;6.90;99.90;;;;;;5027377;28;20127;-86
2021/12/20 02:13:06;;;;;;;6.82;1.20;;;5.20;99.90;;;;;;5042306;28;20037;-85
2021/12/20 02:15:32;;;;;;;12.30;1.35;;;7.10;99.90;;;;;;5043803;28;20049;-85
2021/12/20 02:17:57;;;;;;;10.40;1.25;;;5.20;99.90;;;;;;5042684;28;20047;-86
2021/12/20 02:20:30;;;;;;;5.57;0.60;;;5.10;99.90;;;;;;5043702;28;20052;-85
2021/12/20 02:23:00;;;;;;;7.38;0.73;;;5.00;99.90;;;;;;5044626;28;20124;-86
2021/12/20 02:25:28;;;;;;;7.07;0.90;;;6.80;99.90;;;;;;5044488;28;20129;-85
2021/12/20 02:27:55;;;;;;;10.00;0.98;;;4.90;99.90;;;;;;5026813;28;20081;-86
2021/12/20 02:38:26;;;;;;;10.38;1.00;;;5.80;99.90;;;;;;5042435;28;20056;-85
2021/12/20 02:41:09;;;;;;;6.97;1.38;;;4.70;99.90;;;;;;5026623;28;20049;-86
2021/12/20 02:43:41;;;;;;;7.25;1.15;;;6.60;99.90;;;;;;5041978;28;20053;-85
2021/12/20 02:49:25;;;;;;;7.40;0.82;;;5.90;99.90;;;;;;5043170;28;20063;-85
2021/12/20 02:51:52;;;;;;;9.10;0.85;;;5.50;99.90;;;;;;5024968;28;20212;-85
2021/12/20 02:54:21;;;;;;;9.90;0.93;;;4.60;99.90;;;;;;5043100;28;20041;-85
2021/12/20 02:56:47;;;;;;;12.00;1.00;;;4.60;99.90;;;;;;5026187;28;20044;-85
2021/12/20 02:59:14;;;;;;;6.43;1.40;;;4.70;99.90;;;;;;5043073;28;20045;-86
2021/12/20 03:01:42;;;;;;;9.63;0.93;;;5.90;99.90;;;;;;5025622;28;20041;-85
2021/12/20 03:04:08;;;;;;;9.98;1.33;;;4.60;99.90;;;;;;5042051;28;20090;-85
2021/12/20 03:06:49;;;;;;;9.27;1.05;;;4.60;99.90;;;;;;5026670;28;20068;-86
2021/12/20 03:09:18;;;;;;;5.13;0.80;;;4.60;99.90;;;;;;5042316;28;20084;-85
2021/12/20 03:11:46;;;;;;;12.70;1.20;;;4.60;99.90;;;;;;5042528;28;20069;-86
2021/12/20 03:14:24;;;;;;;7.13;1.27;;;5.80;99.90;;;;;;5042912;28;20345;-86
2021/12/20 03:16:50;;;;;;;14.77;1.30;;;4.60;99.90;;;;;;5044057;28;20075;-86
2021/12/20 03:19:15;;;;;;;13.88;0.98;;;4.60;99.90;;;;;;5042994;28;20473;-86
2021/12/20 03:21:41;;;;;;;5.63;0.82;;;4.50;99.90;;;;;;5025462;28;20049;-86
2021/12/20 03:24:07;;;;;;;5.57;0.93;;;5.70;99.90;;;;;;5042827;28;20530;-86
2021/12/20 03:26:34;;;;;;;5.22;0.98;;;4.60;99.90;;;;;;5042210;28;20059;-86
2021/12/20 03:29:00;;;;;;;11.73;1.48;;;6.40;99.90;;;;;;5042667;28;20037;-86
2021/12/20 03:31:25;;;;;;;5.38;0.82;;;4.40;99.90;;;;;;5042501;28;20493;-86
2021/12/20 03:33:51;;;;;;;11.23;1.13;;;4.30;99.90;;;;;;5041659;28;20132;-85
2021/12/20 03:36:17;;;;;;;9.57;0.88;;;5.50;99.90;;;;;;5042070;28;20060;-85
2021/12/20 03:38:43;;;;;;;9.00;1.30;;;6.50;99.90;;;;;;5025099;28;20094;-86
2021/12/20 03:41:09;;;;;;;7.90;2.05;;;4.20;99.90;;;;;;5042769;28;20481;-86
2021/12/20 03:43:35;;;;;;;9.15;0.93;;;4.50;99.90;;;;;;5025217;28;20119;-86
2021/12/20 03:46:02;;;;;;;21.83;1.08;;;4.10;99.90;;;;;;5025819;28;20477;-86
2021/12/20 03:48:28;;;;;;;5.43;1.13;;;4.50;99.90;;;;;;5042442;28;20449;-86
2021/12/20 03:50:55;;;;;;;6.28;0.88;;;4.00;99.90;;;;;;5042114;28;20144;-86
2021/12/20 03:53:21;;;;;;;11.85;1.88;;;3.90;99.90;;;;;;5025770;28;20404;-86
2021/12/20 03:55:47;;;;;;;12.07;2.95;;;3.80;99.90;;;;;;5024883;28;20045;-86
2021/12/20 03:58:13;;;;;;;6.40;1.05;;;3.70;99.90;;;;;;5026607;28;20079;-86
2021/12/20 04:00:39;;;;;;;10.60;1.10;;;5.60;99.90;;;;;;5024734;28;20477;-85
2021/12/20 04:03:10;;;;;;;2.67;0.75;;;5.10;99.90;;;;;;5025576;28;20477;-85
2021/12/20 04:05:36;;;;;;;5.90;0.80;;;3.50;99.90;;;;;;5043249;28;20053;-86
2021/12/20 04:08:02;;;;;;;7.05;1.50;;;3.50;99.90;;;;;;5041553;28;20049;-86
2021/12/20 04:10:28;;;;;;;7.72;0.73;;;3.50;99.90;;;;;;5025892;28;20052;-86
2021/12/20 04:12:54;;;;;;;17.45;1.10;;;3.40;99.90;;;;;;5041736;28;20052;-85
2021/12/20 04:15:20;;;;;;;6.45;0.98;;;3.40;99.90;;;;;;5026061;28;20404;-86
2021/12/20 04:17:46;;;;;;;8.50;1.10;;;3.30;99.90;;;;;;5024511;28;20404;-86
2021/12/20 04:20:12;;;;;;;7.93;1.27;;;3.20;99.90;;;;;;5043689;28;20109;-86
2021/12/20 04:22:38;;;;;;;11.32;1.00;;;3.20;99.90;;;;;;5043722;28;20052;-85
2021/12/20 04:25:05;;;;;;;5.78;0.80;;;5.00;99.90;;;;;;5045541;28;20042;-86
2021/12/20 04:27:30;;;;;;;11.38;1.13;;;3.10;99.90;;;;;;5045201;28;20041;-86
2021/12/20 04:29:57;;;;;;;9.65;1.10;;;3.00;99.90;;;;;;5044356;28;20055;-86
2021/12/20 04:32:23;;;;;;;7.75;1.10;;;5.10;99.90;;;;;;5046117;28;20044;-86
2021/12/20 04:34:48;;;;;;;16.45;1.65;;;2.90;99.90;;;;;;5044438;28;20499;-86
2021/12/20 04:37:14;;;;;;;8.75;0.82;;;2.80;99.90;;;;;;5045467;28;20230;-85
2021/12/20 04:39:40;;;;;;;7.28;0.90;;;2.80;99.90;;;;;;5045389;28;20128;-85
2021/12/20 04:42:08;;;;;;;8.25;0.88;;;2.80;99.90;;;;;;5044947;28;20157;-85
2021/12/20 04:44:34;;;;;;;3.92;0.70;;;2.70;99.90;;;;;;5044550;28;20115;-85
2021/12/20 04:47:00;;;;;;;7.68;1.27;;;2.70;99.90;;;;;;5045731;28;20060;-86
2021/12/20 04:49:26;;;;;;;10.73;0.90;;;2.60;99.90;;;;;;5028874;28;20106;-85
2021/12/20 04:51:54;;;;;;;4.47;1.10;;;3.90;99.90;;;;;;5043879;28;20084;-85
2021/12/20 04:54:21;;;;;;;5.60;0.95;;;2.60;99.90;;;;;;5045211;28;20554;-86
2021/12/20 04:56:46;;;;;;;4.28;0.77;;;2.50;99.90;;;;;;5044600;28;20529;-85
2021/12/20 04:59:12;;;;;;;13.13;1.33;;;2.50;99.90;;;;;;5044320;28;20041;-85
2021/12/20 05:01:38;;;;;;;3.28;0.50;;;1.20;99.90;;;;;;5027943;28;20048;-85
2021/12/20 05:04:04;;;;;;;8.05;1.00;;;3.30;99.90;;;;;;5044016;28;20072;-86
2021/12/20 05:06:31;;;;;;;10.82;1.02;;;2.40;99.90;;;;;;5046847;28;20072;-85
2021/12/20 05:08:57;;;;;;;6.88;0.63;;;2.40;99.90;;;;;;5043994;28;20048;-85
2021/12/20 05:11:24;;;;;;;13.77;1.33;;;3.70;99.90;;;;;;5029524;28;20037;-85
2021/12/20 05:13:50;;;;;;;10.20;0.88;;;2.30;99.90;;;;;;5044791;28;20095;-85
2021/12/20 05:16:16;;;;;;;4.05;0.93;;;2.30;99.90;;;;;;5027351;28;20045;-85
2021/12/20 05:18:42;;;;;;;1.70;0.68;;;2.20;99.90;;;;;;5046061;28;20392;-85
2021/12/20 05:21:07;;;;;;;4.80;0.82;;;2.20;99.90;;;;;;5027645;28;20048;-84
2021/12/20 05:23:33;;;;;;;9.10;1.27;;;2.20;99.90;;;;;;5045065;28;20052;-85
2021/12/20 05:25:59;;;;;;;10.02;1.50;;;2.10;99.90;;;;;;5027147;28;20047;-85
2021/12/20 05:28:25;;;;;;;6.25;0.77;;;2.10;99.90;;;;;;5044650;28;20059;-87
2021/12/20 05:30:52;;;;;;;8.35;1.13;;;3.10;99.90;;;;;;5027045;28;20094;-84
2021/12/20 05:33:19;;;;;;;6.57;1.13;;;2.00;99.90;;;;;;5027764;28;20092;-85
2021/12/20 05:35:45;;;;;;;6.47;2.58;;;1.90;99.90;;;;;;5042738;28;20110;-85
2021/12/20 05:38:11;;;;;;;9.48;0.90;;;1.90;99.90;;;;;;5043454;28;20443;-84
2021/12/20 05:40:37;;;;;;;11.77;0.93;;;1.90;99.90;;;;;;5044362;28;20041;-86
2021/12/20 05:43:04;;;;;;;4.32;0.82;;;1.90;99.90;;;;;;5026789;28;20502;-85
2021/12/20 05:45:30;;;;;;;7.70;1.17;;;1.80;99.90;;;;;;5027973;28;20059;-83
2021/12/20 05:47:56;;;;;;;4.70;0.85;;;2.20;99.90;;;;;;5043365;28;20067;-83
2021/12/20 05:50:22;;;;;;;6.15;0.95;;;1.80;99.90;;;;;;5045952;28;20044;-85
2021/12/20 05:52:48;;;;;;;9.48;1.27;;;1.80;99.90;;;;;;5043473;28;20096;-86
2021/12/20 05:55:15;;;;;;;5.10;0.80;;;2.60;99.90;;;;;;5026380;28;20136;-86
2021/12/20 05:57:40;;;;;;;6.30;0.88;;;1.70;99.90;;;;;;5027208;28;20474;-86
2021/12/20 06:00:14;;;;;;;6.03;1.00;;;1.60;99.90;;;;;;5026220;28;20041;-86
2021/12/20 06:02:42;;;;;;;5.70;0.75;;;3.60;99.90;;;;;;5027873;28;20041;-87
2021/12/20 06:05:09;;;;;;;7.30;1.23;;;1.60;99.90;;;;;;5042975;28;20049;-87
2021/12/20 06:07:38;;;;;;;6.05;1.15;;;1.60;99.90;;;;;;5027279;28;20400;-86
2021/12/20 06:10:06;;;;;;;2.90;0.50;;;2.80;99.90;;;;;;5026736;28;20084;-87
2021/12/20 06:12:32;;;;;;;5.43;0.77;;;1.50;99.90;;;;;;5026314;28;20142;-86
2021/12/20 06:14:57;;;;;;;3.40;1.23;;;1.50;99.90;;;;;;5027139;28;20527;-87
2021/12/20 06:17:23;;;;;;;7.03;1.10;;;1.40;99.90;;;;;;5025721;28;20076;-86
2021/12/20 06:19:49;;;;;;;6.05;0.90;;;1.40;99.90;;;;;;5060077;28;20048;-83
2021/12/20 06:22:14;;;;;;;8.48;1.10;;;1.40;99.90;;;;;;5044181;28;20150;-85
2021/12/20 06:24:40;;;;;;;7.72;0.82;;;1.40;99.90;;;;;;5026697;28;20131;-86
2021/12/20 06:27:06;;;;;;;9.75;1.60;;;0.50;99.90;;;;;;5044413;28;20128;-88
2021/12/20 06:29:33;;;;;;;9.18;0.82;;;1.40;99.90;;;;;;5042411;28;20044;-87
2021/12/20 06:31:59;;;;;;;4.80;0.93;;;1.30;99.90;;;;;;5026497;28;20568;-88
2021/12/20 06:34:24;;;;;;;8.10;1.17;;;1.30;99.90;;;;;;5025322;28;20059;-87
2021/12/20 06:36:50;;;;;;;5.00;0.75;;;1.30;99.90;;;;;;5042800;28;20045;-86
2021/12/20 06:39:16;;;;;;;10.95;1.13;;;2.10;99.90;;;;;;5025325;28;20110;-87
2021/12/20 06:41:43;;;;;;;7.03;1.65;;;1.20;99.90;;;;;;5044479;28;20068;-87
2021/12/20 06:44:11;;;;;;;3.70;0.82;;;1.20;99.90;;;;;;5025631;28;20076;-86
2021/12/20 06:46:41;;;;;;;3.40;0.85;;;3.30;99.90;;;;;;5041012;28;20500;-84
2021/12/20 06:49:09;;;;;;;4.85;0.90;;;1.30;99.90;;;;;;5026031;28;20044;-83
2021/12/20 06:51:43;;;;;;;6.90;1.40;;;1.20;99.90;;;;;;5041894;28;20511;-83
2021/12/20 06:54:19;;;;;;;5.00;1.10;;;1.20;99.90;;;;;;5041097;28;20048;-84
2021/12/20 06:56:45;;;;;;;12.05;1.50;;;3.20;99.90;;;;;;5041490;28;20036;-84
2021/12/20 06:59:11;;;;;;;4.68;1.20;;;1.10;99.90;;;;;;5043612;28;20583;-85
2021/12/20 07:01:37;;;;;;;9.65;1.15;;;1.10;99.90;;;;;;5042583;28;20047;-87
2021/12/20 07:04:03;;;;;;;8.73;1.77;;;2.90;99.90;;;;;;5041908;28;20139;-85
2021/12/20 07:06:29;;;;;;;6.20;1.35;;;1.10;99.90;;;;;;5026906;28;20055;-84
2021/12/20 07:08:55;;;;;;;4.65;1.25;;;2.80;99.90;;;;;;5041607;28;20052;-84
2021/12/20 07:11:22;;;;;;;6.32;1.33;;;1.00;99.90;;;;;;5043320;28;20125;-85
2021/12/20 07:13:47;;;;;;;9.48;1.85;;;2.80;99.90;;;;;;5025242;28;20041;-84
2021/12/20 07:16:13;;;;;;;3.72;0.90;;;0.90;99.90;;;;;;5025566;28;20051;-90
2021/12/20 07:18:39;;;;;;;7.07;1.23;;;2.20;99.90;;;;;;5025412;28;20048;-86
2021/12/20 07:21:05;;;;;;;6.90;1.58;;;0.90;99.90;;;;;;5058173;28;20049;-85
2021/12/20 07:23:31;;;;;;;2.47;1.33;;;3.10;99.90;;;;;;5042662;28;20044;-85
2021/12/20 07:25:56;;;;;;;6.70;1.10;;;0.90;99.90;;;;;;5041181;28;20407;-85
2021/12/20 07:28:22;;;;;;;4.97;1.15;;;2.40;99.90;;;;;;5043969;28;20055;-84
2021/12/20 07:30:48;;;;;;;5.93;1.70;;;0.80;99.90;;;;;;5041767;28;20045;-86
2021/12/20 07:33:15;;;;;;;5.45;1.02;;;1.20;99.90;;;;;;5042173;28;20037;-85
2021/12/20 07:35:45;;;;;;;9.77;1.60;;;0.80;99.90;;;;;;5042948;28;20052;-84
2021/12/20 07:38:13;;;;;;;6.85;1.23;;;0.70;99.90;;;;;;5041706;28;20037;-85
2021/12/20 07:40:45;;;;;;;9.20;1.63;;;0.70;99.90;;;;;;5042757;28;20111;-84
2021/12/20 07:43:18;;;;;;;6.80;1.20;;;0.60;99.90;;;;;;5019820;28;20088;-83
2021/12/20 07:45:49;;;;;;;4.53;1.23;;;3.00;99.90;;;;;;5039209;28;20052;-84
2021/12/20 07:48:16;;;;;;;9.95;2.55;;;0.60;99.90;;;;;;5042042;28;20724;-85
2021/12/20 07:50:42;;;;;;;8.52;2.78;;;0.60;99.90;;;;;;5041607;28;20043;-87
2021/12/20 07:53:08;;;;;;;4.75;1.38;;;0.60;99.90;;;;;;5025038;28;20555;-85
2021/12/20 07:55:34;;;;;;;12.48;4.88;;;1.90;99.90;;;;;;5023717;28;20056;-87
2021/12/20 07:58:00;;;;;;;17.13;4.43;;;0.60;99.90;;;;;;5043322;28;20041;-84
2021/12/20 08:00:27;;;;;;;13.38;2.55;;;0.50;99.90;;;;;;5046194;28;20492;-85
2021/12/20 08:02:54;;;;;;;10.05;3.15;;;0.50;99.90;;;;;;5030362;28;20448;-86
2021/12/20 08:05:20;;;;;;;9.38;2.85;;;0.60;99.90;;;;;;5028709;28;20085;-86
2021/12/20 08:07:50;;;;;;;14.32;4.68;;;0.50;99.90;;;;;;5062350;28;20052;-86
2021/12/20 08:10:17;;;;;;;10.40;2.88;;;1.40;99.90;;;;;;5029627;28;20198;-87
2021/12/20 08:12:44;;;;;;;14.52;4.40;;;0.60;99.90;;;;;;5045436;28;20044;-86
2021/12/20 08:15:10;;;;;;;10.20;3.22;;;1.50;99.90;;;;;;5046072;28;20049;-87
2021/12/20 08:17:36;;;;;;;14.43;3.15;;;0.60;99.90;;;;;;5044435;28;20064;-85
2021/12/20 08:20:03;;;;;;;7.78;2.92;;;2.10;99.90;;;;;;5028798;28;20045;-88
2021/12/20 08:22:29;;;;;;;12.48;3.35;;;0.70;99.90;;;;;;5045033;28;20044;-85
2021/12/20 08:24:55;;;;;;;10.52;1.83;;;0.70;99.90;;;;;;5028088;28;20051;-85
2021/12/20 08:27:20;;;;;;;11.73;3.13;;;0.90;99.90;;;;;;5045997;28;20045;-85
2021/12/20 08:29:46;;;;;;;12.52;6.25;;;0.70;99.90;;;;;;5045913;28;20044;-85
2021/12/20 08:32:12;;;;;;;15.15;6.15;;;2.40;99.90;;;;;;5029221;28;20041;-86
2021/12/20 08:34:37;;;;;;;19.58;4.10;;;1.20;99.90;;;;;;5044609;28;20049;-85
2021/12/20 08:37:03;;;;;;;21.77;8.30;;;0.80;99.90;;;;;;5029276;28;20484;-85
2021/12/20 08:39:31;;;;;;;18.75;6.05;;;0.80;99.90;;;;;;5027239;28;20036;-85
2021/12/20 08:41:58;;;;;;;13.30;5.72;;;2.50;99.90;;;;;;5044994;28;20048;-85
2021/12/20 08:44:24;;;;;;;13.50;4.50;;;0.90;99.90;;;;;;5044532;28;20057;-85
2021/12/20 08:46:51;;;;;;;10.25;3.13;;;1.20;99.90;;;;;;5027042;28;20559;-85
2021/12/20 08:49:17;;;;;;;3.80;2.35;;;2.90;99.90;;;;;;5045518;28;20072;-86
2021/12/20 08:51:45;;;;;;;11.45;2.60;;;0.90;99.90;;;;;;5043872;28;20041;-85
2021/12/20 08:54:11;;;;;;;11.65;3.53;;;1.00;99.90;;;;;;5045620;28;20052;-85
2021/12/20 08:56:37;;;;;;;7.07;2.40;;;2.40;99.90;;;;;;5044558;28;20049;-86
2021/12/20 08:59:03;;;;;;;16.60;3.33;;;1.10;99.90;;;;;;5027978;28;20067;-86
2021/12/20 09:01:29;;;;;;;12.55;2.35;;;1.10;99.90;;;;;;5026779;28;20181;-86
2021/12/20 09:03:57;;;;;;;11.63;2.63;;;2.30;99.90;;;;;;5028288;28;20226;-87
2021/12/20 09:06:24;;;;;;;9.70;1.95;;;1.20;99.90;;;;;;5029956;28;20418;-85
2021/12/20 09:08:57;;;;;;;8.90;1.55;;;2.60;99.90;;;;;;5021969;28;20120;-85
2021/12/20 09:11:31;;;;;;;8.03;1.70;;;1.30;99.90;;;;;;5025700;28;20453;-86
2021/12/20 09:13:57;;;;;;;7.53;1.38;;;2.30;99.90;;;;;;5028338;28;20283;-85
2021/12/20 09:16:22;;;;;;;9.90;1.85;;;1.40;99.90;;;;;;5027380;28;20386;-88
2021/12/20 09:18:48;;;;;;;8.85;2.10;;;1.50;99.90;;;;;;5061313;28;20056;-85
2021/12/20 09:21:15;;;;;;;15.98;1.73;;;1.50;99.90;;;;;;5043439;28;20041;-85
2021/12/20 09:23:42;;;;;;;11.55;2.17;;;1.60;99.90;;;;;;5045342;28;20057;-86
2021/12/20 09:26:07;;;;;;;13.35;2.10;;;2.00;99.90;;;;;;5027006;28;20386;-87
2021/12/20 09:28:34;;;;;;;14.65;1.85;;;1.90;99.90;;;;;;5045043;28;20048;-88
2021/12/20 09:31:01;;;;;;;9.20;2.45;;;4.10;99.90;;;;;;5027452;28;20041;-88
2021/12/20 09:33:27;;;;;;;11.07;1.92;;;2.10;99.90;;;;;;5045627;28;20067;-84
2021/12/20 09:35:53;;;;;;;19.40;2.75;;;2.20;99.90;;;;;;5046060;28;20532;-92
2021/12/20 09:38:20;;;;;;;14.73;2.20;;;2.70;99.90;;;;;;5031451;28;20051;-87
2021/12/20 09:41:13;;;;;;;9.65;2.42;;;2.30;99.90;;;;;;5035220;28;20045;-88
2021/12/20 09:43:42;;;;;;;15.13;2.40;;;2.40;99.90;;;;;;5049105;28;20037;-86
2021/12/20 09:46:08;;;;;;;13.00;2.83;;;2.50;99.90;;;;;;5046094;28;20045;-84
2021/12/20 09:48:36;;;;;;;11.70;2.75;;;4.70;99.90;;;;;;5027094;28;20048;-85
2021/12/20 09:51:04;;;;;;;8.02;2.78;;;5.00;99.90;;;;;;5043070;28;20052;-84
2021/12/20 09:53:31;;;;;;;24.63;4.32;;;2.90;99.90;;;;;;5027981;28;20126;-87
2021/12/20 09:55:58;;;;;;;11.93;2.75;;;3.10;99.90;;;;;;5042360;28;20115;-87
2021/12/20 09:58:25;;;;;;;28.48;3.63;;;5.00;99.90;;;;;;5044378;28;20056;-87
2021/12/20 10:00:52;;;;;;;22.48;4.15;;;3.30;99.90;;;;;;5043168;28;20087;-88
2021/12/20 10:03:24;;;;;;;20.60;3.55;;;3.50;99.90;;;;;;5025658;28;20049;-87
2021/12/20 10:05:54;;;;;;;28.50;4.35;;;3.60;99.90;;;;;;5026801;28;20048;-87
2021/12/20 10:08:30;;;;;;;29.58;5.03;;;3.80;99.90;;;;;;5043039;28;20053;-88
2021/12/20 10:10:56;;;;;;;14.32;3.45;;;3.90;99.90;;;;;;5027637;28;20041;-86
2021/12/20 10:13:25;;;;;;;20.27;5.55;;;4.00;99.90;;;;;;5025274;28;20590;-87
2021/12/20 10:15:51;;;;;;;29.48;5.05;;;6.30;99.90;;;;;;5043290;28;20051;-86
2021/12/20 10:18:17;;;;;;;22.23;5.75;;;4.30;99.90;;;;;;5026644;28;20049;-86
2021/12/20 10:20:55;;;;;;;31.52;5.07;;;4.40;99.90;;;;;;5025201;28;20412;-86
2021/12/20 10:23:22;;;;;;;18.27;4.43;;;4.50;99.90;;;;;;5044246;28;20037;-86
2021/12/20 10:25:54;;;;;;;25.55;3.53;;;5.70;99.90;;;;;;5024704;28;20045;-87
2021/12/20 10:28:23;;;;;;;30.73;4.40;;;4.70;99.90;;;;;;5043734;28;20037;-87
2021/12/20 10:30:55;;;;;;;36.63;4.72;;;4.80;99.90;;;;;;5043486;28;20056;-90
2021/12/20 10:33:24;;;;;;;17.10;3.83;;;4.90;99.90;;;;;;5041657;28;20504;-87
2021/12/20 10:35:59;;;;;;;13.80;3.30;;;5.00;99.90;;;;;;5025935;28;20504;-86
2021/12/20 10:38:38;;;;;;;16.30;3.13;;;5.10;99.90;;;;;;5042229;28;20396;-86
2021/12/20 10:41:12;;;;;;;17.63;3.72;;;5.20;99.90;;;;;;5027307;28;20154;-87
2021/12/20 10:43:49;;;;;;;16.95;3.00;;;5.40;99.90;;;;;;5019353;28;20077;-85
2021/12/20 10:46:54;;;;;;;21.08;3.58;;;4.20;99.90;;;;;;5037731;28;20159;-88
2021/12/20 10:49:26;;;;;;;25.40;3.65;;;7.70;99.90;;;;;;5043148;28;20056;-86
2021/12/20 10:51:52;;;;;;;22.02;3.42;;;5.60;99.90;;;;;;5041985;28;20366;-86
2021/12/20 10:54:21;;;;;;;19.50;3.35;;;5.70;99.90;;;;;;5027160;28;20453;-86
2021/12/20 10:56:50;;;;;;;20.63;3.63;;;4.00;99.90;;;;;;5025949;28;20467;-86
2021/12/20 10:59:16;;;;;;;22.25;3.20;;;5.90;99.90;;;;;;5025230;28;20037;-86
2021/12/20 11:04:45;;;;;;;22.48;3.60;;;6.70;99.90;;;;;;5043393;28;20045;-87
2021/12/20 11:09:50;;;;;;;23.65;2.88;;;6.20;99.90;;;;;;5042779;28;20049;-87
2021/12/20 11:12:22;;;;;;;20.95;4.45;;;7.80;99.90;;;;;;5042130;28;20053;-85
2021/12/20 11:14:51;;;;;;;19.58;2.70;;;6.30;99.90;;;;;;5027245;28;20045;-84
2021/12/20 11:17:19;;;;;;;24.92;3.55;;;7.30;99.90;;;;;;5042411;28;20650;-86
2021/12/20 11:19:47;;;;;;;17.45;3.17;;;6.50;99.90;;;;;;5043513;28;20053;-87
2021/12/20 11:22:30;;;;;;;15.13;2.65;;;6.50;99.90;;;;;;5041438;28;20079;-87
2021/12/20 11:24:56;;;;;;;;;;;6.60;99.90;;;;;;5042304;28;20091;-86
2021/12/20 11:27:32;;;;;;;14.00;2.30;;;6.60;99.90;;;;;;5042298;28;19921;-86
2021/12/20 11:30:03;;;;;;;14.18;2.28;;;6.70;99.90;;;;;;5041215;28;20041;-87
2021/12/20 11:32:30;;;;;;;21.65;2.83;;;6.70;99.90;;;;;;5027301;28;20412;-86
2021/12/20 11:34:56;;;;;;;15.70;2.50;;;6.80;99.90;;;;;;5029017;28;20049;-86
2021/12/20 11:37:25;;;;;;;14.48;2.03;;;6.80;99.90;;;;;;5029641;28;20090;-87
2021/12/20 11:39:52;;;;;;;14.45;1.88;;;6.90;99.90;;;;;;5045152;28;20048;-87
2021/12/20 11:42:18;;;;;;;5.93;1.10;;;8.20;99.90;;;;;;5046664;28;20029;-87
2021/12/20 11:44:48;;;;;;;13.73;1.50;;;7.00;99.90;;;;;;5028905;28;20057;-86
2021/12/20 11:47:39;;;;;;;5.55;1.27;;;7.40;99.90;;;;;;5026620;28;20041;-86
2021/12/20 11:50:10;;;;;;;14.90;1.35;;;7.00;99.90;;;;;;5027116;28;20045;-88
2021/12/20 11:52:38;;;;;;;12.73;1.63;;;7.10;99.90;;;;;;5027845;28;20084;-87
2021/12/20 11:55:27;;;;;;;13.13;1.35;;;7.10;99.90;;;;;;5044903;28;20055;-87
2021/12/20 11:58:05;;;;;;;11.60;2.00;;;7.20;99.90;;;;;;5029334;28;20052;-88
2021/12/20 12:00:33;;;;;;;11.25;1.90;;;7.20;99.90;;;;;;5026942;28;20140;-87
2021/12/20 12:03:17;;;;;;;16.92;2.65;;;7.80;99.90;;;;;;5026432;28;20077;-87
2021/12/20 12:05:55;;;;;;;8.98;1.42;;;7.30;99.90;;;;;;5028205;28;20052;-86
2021/12/20 12:08:52;;;;;;;12.23;2.15;;;7.30;99.90;;;;;;5025970;28;20084;-86
2021/12/20 12:11:19;;;;;;;11.20;1.25;;;7.30;99.90;;;;;;5045678;28;20453;-88
2021/12/20 12:13:59;;;;;;;9.63;1.98;;;7.30;99.90;;;;;;5043462;28;20049;-86
2021/12/20 12:17:05;;;;;;;10.70;1.35;;;7.30;99.90;;;;;;5023844;28;20103;-86
2021/12/20 12:19:41;;;;;;;9.45;2.20;;;7.40;99.90;;;;;;5027486;28;20102;-87
2021/12/20 12:22:34;;;;;;;7.35;1.58;;;7.40;99.90;;;;;;5042475;28;20048;-87
2021/12/20 12:25:02;;;;;;;3.20;0.65;;;7.40;99.90;;;;;;5043203;28;20432;-87
2021/12/20 12:27:30;;;;;;;6.38;0.93;;;6.00;99.90;;;;;;5044421;28;20049;-89
2021/12/20 12:30:11;;;;;;;2.75;0.60;;;7.40;99.90;;;;;;5042646;28;20496;-87
2021/12/20 12:32:46;;;;;;;3.17;0.55;;;7.40;99.90;;;;;;5028028;28;20504;-89
2021/12/20 12:35:37;;;;;;;8.00;1.45;;;7.40;99.90;;;;;;5043305;28;20049;-89
2021/12/20 12:38:20;;;;;;;12.82;2.70;;;7.40;99.90;;;;;;5026695;28;20438;-93
2021/12/20 12:41:07;;;;;;;12.40;1.98;;;9.20;99.90;;;;;;5028307;28;20099;-86
2021/12/20 12:43:54;;;;;;;8.10;1.40;;;6.80;99.90;;;;;;4981665;28;1287653;-87
2021/12/20 12:46:36;;;;;;;5.60;0.88;;;7.30;99.90;;;;;;5044217;28;20505;-87
2021/12/20 12:49:23;;;;;;;9.73;1.27;;;7.30;99.90;;;;;;5044735;28;20087;-88
2021/12/20 12:51:54;;;;;;;7.05;1.25;;;7.30;99.90;;;;;;5044168;28;20079;-85
2021/12/20 12:54:32;;;;;;;4.90;1.02;;;7.30;99.90;;;;;;5046552;28;20072;-89
2021/12/20 12:57:13;;;;;;;11.00;0.90;;;7.30;99.90;;;;;;5028003;28;20049;-87
2021/12/20 12:59:47;;;;;;;4.15;0.50;;;7.20;99.90;;;;;;5025139;28;20135;-88
2021/12/20 13:02:19;;;;;;;5.78;0.70;;;8.70;99.90;;;;;;5029252;28;20049;-88
2021/12/20 13:04:46;;;;;;;8.40;0.82;;;7.30;99.90;;;;;;5045804;28;20052;-88
2021/12/20 13:07:27;;;;;;;5.18;0.98;;;7.30;99.90;;;;;;5053328;28;20045;-92
2021/12/20 13:09:57;;;;;;;4.00;0.93;;;8.50;99.90;;;;;;5033630;28;20067;-90
2021/12/20 13:17:43;;;;;;;7.30;1.10;;;7.20;99.90;;;;;;5049401;28;20109;-92
2021/12/20 13:20:25;;;;;;;6.95;1.02;;;7.30;99.90;;;;;;5030416;28;20511;-90
2021/12/20 13:22:57;;;;;;;4.57;0.60;;;7.20;99.90;;;;;;5027849;28;20048;-89
2021/12/20 13:25:32;;;;;;;2.80;0.57;;;7.20;99.90;;;;;;5026807;28;20512;-91
2021/12/20 13:27:58;;;;;;;4.05;0.70;;;7.20;99.90;;;;;;5044757;28;20041;-90